Meteo Giornale » Osservazioni meteo India » Srinagar
ore: 23:00 - Osservazioni Meteo Srinagar
Lat. 33° 58' N Lon. 74° 46' E Alt. 1666 metri s.l.m.
22 °C
Nuvoloso
Temp. 24 Ore
18 °C
32 °C
Nord
3.7 Km/h
Dew point 18 °C
Umidità 78 %
Visibilità 6 Km
Il sole sorge alle ore 06:04
Il sole tramonta alle ore 18:57
| Data e Ora | Cielo e Fenomeni | T °C | DP °C | Um. % | Pres. hPa | Vis. km | Vento km/h | |
|---|---|---|---|---|---|---|---|---|
| Ieri h: 23:00 | Nuvoloso | 22 | 18 | 78 | 1013 | 6 | N 3.7 | |
| Ieri h: 22:00 | Nuvoloso | 23 | 18 | 73 | 1013 | 6 | N 3.7 | |
| Ieri h: 21:00 | Nuvoloso | 24 | 18 | 69 | 1012 | 6 | N 3.7 | |
| Ieri h: 20:00 | Nuvoloso | 26 | 19 | 65 | 1012 | 6 | N 3.7 | |
| Ieri h: 19:00 | Molto Nuvoloso | 27 | 18 | 57 | 1011 | 6 | N 3.7 | |
| Ieri h: 18:00 | Nuvoloso | 29 | 18 | 51 | 1010 | 6 | O/NO 7.4 | |
| Ieri h: 17:00 | Nuvoloso | 31 | 18 | 45 | 1010 | 6 | N/NO 9.3 | |
| Ieri h: 16:00 | Nuvoloso | 32 | 18 | 43 | 1010 | 6 | O/NO 7.4 | |
| Ieri h: 15:00 | Nuvoloso | 31 | 17 | 43 | 1011 | 6 | N 5.5 | |
| Ieri h: 14:00 | Nuvoloso | 31 | 17 | 43 | 1012 | 6 | N 3.7 | |
| Ieri h: 13:00 | Nuvoloso | 30 | 17 | 45 | 1013 | 6 | N 3.7 | |
| Ieri h: 12:00 | Nuvoloso | 30 | 17 | 45 | 1014 | 6 | N 5.5 | |
| Ieri h: 11:00 | Poco Nuvoloso | 28 | 18 | 54 | 1014 | 6 | N 3.7 | |
| Ieri h: 10:00 | Poco Nuvoloso | 26 | 17 | 57 | 1015 | 6 | N 3.7 | |
| Ieri h: 09:00 | Nuvoloso | 25 | 18 | 65 | 1015 | 6 | N 3.7 | |
| Ieri h: 08:00 | Foschia | 23 | 19 | 78 | 1015 | 5 | N 3.7 | |
| Ieri h: 07:00 | Foschia | 19 | 17 | 88 | 1014 | 5 | N 3.7 | |
| Ieri h: 06:00 | Foschia | 18 | 17 | 93 | 1014 | 4 | N 3.7 | |
| Ieri h: 05:00 | Nuvoloso | 19 | 17 | 88 | 1014 | 6 | N 5.5 | |
| Ieri h: 04:00 | Nuvoloso | 19 | 16 | 82 | 1014 | 6 | N 3.7 | |
| Ieri h: 03:00 | Nuvoloso | 19 | 16 | 82 | 1014 | 6 | N 3.7 | |
| Ieri h: 02:00 | Nuvoloso | 20 | 17 | 82 | 1014 | 6 | N 3.7 | |
| Ieri h: 01:00 | Nuvoloso | 21 | 17 | 77 | 1015 | 6 | N 3.7 | |



